Clinchburg, Virginia
Current Conditions -  °F | °C
As of 9:35 PM on Sunday 21 Dec 2014 (Local Time) from KVJI Reporting Station
Clear Clear  
Wind Chill: 34°   Ceiling: Unl
Heat Index: 39°   Visibility: 10mi
Dew Point: 34°   Wind: 8mph
Humidity: 82%   Direction: 90°E
Pressure: 30.11"   Gusts: NA
Location:  36.7675°N, 81.854°W
Report Text: KVJI 220235Z AUTO 09007KT 10SM CLR 04/01 A3011 RMK AO2 T00410012
Loading
Personal Weather Stations






























Interactive Weather Map New forecast layout! Learn more

10-Day Weather Forecast

Advertisements
Track Severe Weather on mobile